createdAt,value
2022-08-05T00:02:08.002Z,83.18
2022-08-05T00:04:37.977Z,84.04
2022-08-05T00:07:26.789Z,83.86
2022-08-05T00:09:54.689Z,84.52
2022-08-05T00:12:21.277Z,84.33
2022-08-05T00:14:48.513Z,84.21
2022-08-05T00:17:18.652Z,84.21
2022-08-05T00:20:02.741Z,84.05
2022-08-05T00:22:29.695Z,85.00
2022-08-05T00:24:58.140Z,84.47
2022-08-05T00:27:28.532Z,83.96
2022-08-05T00:30:03.736Z,84.42
2022-08-05T00:32:30.454Z,84.09
2022-08-05T00:35:06.059Z,84.87
2022-08-05T00:37:51.267Z,85.77
2022-08-05T00:40:27.782Z,85.28
2022-08-05T00:43:00.510Z,85.24
2022-08-05T00:45:38.057Z,84.87
2022-08-05T00:48:31.306Z,84.30
2022-08-05T00:50:59.764Z,84.58
2022-08-05T00:53:35.302Z,83.96
2022-08-05T00:56:13.094Z,84.33
2022-08-05T00:58:44.968Z,84.06
2022-08-05T01:01:13.093Z,83.89
2022-08-05T01:03:39.930Z,84.22
2022-08-05T01:06:11.174Z,83.76
2022-08-05T01:08:44.307Z,83.76
2022-08-05T01:11:22.380Z,84.20
2022-08-05T01:14:08.832Z,84.13
2022-08-05T01:16:44.310Z,84.36
2022-08-05T01:19:36.611Z,83.19
2022-08-05T01:22:35.042Z,83.36
2022-08-05T01:25:40.119Z,83.65
2022-08-05T01:28:31.378Z,83.66
2022-08-05T01:31:26.319Z,83.96
2022-08-05T01:34:04.575Z,84.49
2022-08-05T01:36:42.284Z,84.59
2022-08-05T01:39:15.697Z,84.72
2022-08-05T01:42:05.274Z,84.42
2022-08-05T01:44:35.488Z,83.13
2022-08-05T01:47:05.187Z,82.64
2022-08-05T01:49:42.809Z,83.12
2022-08-05T01:52:23.389Z,82.84
2022-08-05T01:54:57.001Z,83.32
2022-08-05T01:58:29.164Z,84.48
2022-08-05T02:00:16.871Z,86.31
2022-08-05T02:02:54.325Z,87.14
2022-08-05T02:05:28.652Z,87.52
2022-08-05T02:08:01.337Z,87.36
2022-08-05T02:10:36.697Z,88.98
2022-08-05T02:13:16.369Z,89.82
2022-08-05T02:15:59.597Z,88.07
2022-08-05T02:18:34.828Z,89.14
2022-08-05T02:21:15.014Z,90.61
2022-08-05T02:23:44.730Z,90.52
2022-08-05T02:26:15.795Z,90.29
2022-08-05T02:28:46.354Z,90.13
2022-08-05T02:31:34.874Z,90.28
2022-08-05T02:34:09.171Z,89.65
2022-08-05T02:36:39.073Z,89.97
2022-08-05T02:39:09.113Z,89.01
2022-08-05T02:41:57.975Z,88.47
2022-08-05T02:44:26.606Z,88.27
2022-08-05T02:47:00.076Z,87.43
2022-08-05T02:49:35.956Z,87.66
2022-08-05T02:52:07.892Z,88.48
2022-08-05T02:54:37.709Z,88.52
2022-08-05T02:58:11.881Z,88.41
2022-08-05T02:59:59.443Z,88.00
2022-08-05T03:02:37.776Z,88.72
2022-08-05T03:05:07.480Z,89.12
2022-08-05T03:07:59.341Z,88.80
2022-08-05T03:10:24.874Z,88.94
2022-08-05T03:12:53.591Z,89.86
2022-08-05T03:15:23.655Z,90.14
2022-08-05T03:17:56.172Z,90.46
2022-08-05T03:20:25.102Z,91.14
2022-08-05T03:22:57.306Z,91.74
2022-08-05T03:26:04.993Z,91.80
2022-08-05T03:28:19.837Z,90.97
2022-08-05T03:30:48.192Z,90.63
2022-08-05T03:33:16.085Z,90.79
2022-08-05T03:35:45.593Z,91.06
2022-08-05T03:38:14.322Z,91.08
2022-08-05T03:40:47.273Z,90.93
2022-08-05T03:44:09.597Z,91.17
2022-08-05T03:46:03.889Z,91.02
2022-08-05T03:48:35.069Z,90.90
2022-08-05T03:52:37.315Z,91.89
2022-08-05T03:55:34.061Z,92.00
2022-08-05T03:56:58.895Z,92.07
2022-08-05T03:59:47.318Z,91.77
2022-08-05T04:02:39.194Z,91.47
2022-08-05T04:05:13.172Z,91.70
2022-08-05T04:07:57.053Z,91.75
2022-08-05T04:10:27.507Z,92.45
2022-08-05T04:12:55.433Z,91.67
2022-08-05T04:15:26.616Z,90.96
2022-08-05T04:17:59.945Z,91.22
2022-08-05T04:20:27.416Z,91.55
2022-08-05T04:22:55.641Z,90.84
2022-08-05T04:25:24.182Z,90.57
2022-08-05T04:28:11.317Z,90.51
2022-08-05T04:30:39.311Z,90.89
2022-08-05T04:33:06.256Z,90.88
2022-08-05T04:36:10.645Z,90.90
2022-08-05T04:38:20.911Z,91.23
2022-08-05T04:40:50.918Z,90.85
2022-08-05T04:43:17.825Z,91.11
2022-08-05T04:45:55.016Z,91.08
2022-08-05T04:48:27.320Z,90.16
2022-08-05T04:51:02.753Z,90.86
2022-08-05T04:53:36.416Z,91.29
2022-08-05T04:56:33.839Z,91.17
2022-08-05T04:58:54.154Z,90.99
2022-08-05T05:02:06.213Z,91.40
2022-08-05T05:04:07.106Z,90.72
2022-08-05T05:06:44.453Z,90.21
2022-08-05T05:09:14.176Z,90.33
2022-08-05T05:11:54.445Z,89.72
2022-08-05T05:14:31.718Z,89.99
2022-08-05T05:17:00.122Z,89.07
2022-08-05T05:19:37.157Z,88.20
2022-08-05T05:22:24.551Z,88.40
2022-08-05T05:24:58.006Z,88.48
2022-08-05T05:27:44.213Z,87.71
2022-08-05T05:30:30.616Z,87.02
2022-08-05T05:33:13.936Z,86.89
2022-08-05T05:35:43.408Z,86.37
2022-08-05T05:38:13.146Z,86.22
2022-08-05T05:40:47.940Z,86.88
2022-08-05T05:43:22.270Z,85.89
2022-08-05T05:46:10.643Z,85.04
2022-08-05T05:48:44.421Z,85.08
2022-08-05T05:51:15.210Z,82.95
2022-08-05T05:53:54.009Z,82.81
2022-08-05T05:56:31.801Z,81.28
2022-08-05T05:59:05.581Z,81.68
2022-08-05T06:01:37.406Z,82.43
2022-08-05T06:04:13.131Z,83.01
2022-08-05T06:06:42.906Z,83.28
2022-08-05T06:09:16.747Z,83.70
2022-08-05T06:11:48.845Z,84.46
2022-08-05T06:14:28.877Z,86.04
2022-08-05T06:16:56.774Z,87.43
2022-08-05T06:19:34.127Z,88.15
2022-08-05T06:22:06.699Z,86.90
2022-08-05T06:24:34.914Z,88.29
2022-08-05T06:27:03.867Z,88.81
2022-08-05T06:29:49.250Z,89.34
2022-08-05T06:32:26.129Z,88.99
2022-08-05T06:34:57.525Z,88.02
2022-08-05T06:37:57.020Z,89.73
2022-08-05T06:40:18.364Z,90.29
2022-08-05T06:42:52.769Z,90.43
2022-08-05T06:46:03.411Z,89.15
2022-08-05T06:48:37.246Z,88.76
2022-08-05T06:50:55.793Z,89.93
2022-08-05T06:53:27.665Z,89.43
2022-08-05T06:55:55.152Z,90.85
2022-08-05T06:58:35.437Z,91.71
2022-08-05T07:01:05.919Z,92.35
2022-08-05T07:03:33.798Z,91.92
2022-08-05T07:06:06.010Z,91.43
2022-08-05T07:08:47.988Z,91.21
2022-08-05T07:11:22.397Z,91.38
2022-08-05T07:14:15.336Z,91.95
2022-08-05T07:18:00.418Z,92.29
2022-08-05T07:22:28.389Z,93.22
2022-08-05T07:25:24.116Z,93.03
2022-08-05T07:28:01.489Z,94.38
2022-08-05T07:30:34.531Z,93.56
2022-08-05T07:33:09.407Z,92.88
2022-08-05T07:36:03.189Z,93.39
2022-08-05T07:38:32.836Z,92.60
2022-08-05T07:41:34.981Z,92.85
2022-08-05T07:43:58.117Z,91.16
2022-08-05T07:46:27.506Z,91.49
2022-08-05T07:49:01.909Z,90.75
2022-08-05T07:51:40.826Z,90.25
2022-08-05T07:54:15.956Z,89.60
2022-08-05T07:57:13.758Z,90.71
2022-08-05T07:59:40.396Z,88.28
2022-08-05T08:02:16.397Z,87.76
2022-08-05T08:04:48.287Z,88.73
2022-08-05T08:07:15.564Z,86.44
2022-08-05T08:09:42.712Z,86.85
2022-08-05T08:12:19.196Z,87.21
2022-08-05T08:14:56.582Z,85.58
2022-08-05T08:17:24.228Z,85.35
2022-08-05T08:20:21.241Z,86.63
2022-08-05T08:22:41.964Z,83.08
2022-08-05T08:25:16.402Z,83.53
2022-08-05T08:27:45.099Z,82.98
2022-08-05T08:30:29.744Z,80.65
2022-08-05T08:33:08.568Z,80.74
2022-08-05T08:35:41.092Z,80.79
2022-08-05T08:38:11.662Z,80.97
2022-08-05T08:40:50.511Z,77.95
2022-08-05T08:44:57.926Z,76.67
2022-08-05T08:46:06.226Z,76.82
2022-08-05T08:49:02.462Z,75.16
2022-08-05T08:52:04.179Z,75.35
2022-08-05T08:54:14.379Z,76.42
2022-08-05T08:56:47.916Z,76.05
2022-08-05T08:59:20.711Z,76.08
2022-08-05T09:01:57.314Z,76.18
2022-08-05T09:04:30.387Z,75.46
2022-08-05T09:07:01.608Z,77.05
2022-08-05T09:09:38.086Z,76.56
2022-08-05T09:12:30.231Z,77.30
2022-08-05T09:15:05.650Z,74.38
2022-08-05T09:17:40.526Z,75.54
2022-08-05T09:20:09.208Z,75.85
2022-08-05T09:23:19.971Z,75.13
2022-08-05T09:26:06.493Z,75.55
2022-08-05T09:28:37.814Z,75.95
2022-08-05T09:31:22.408Z,75.51
2022-08-05T09:34:03.518Z,76.83
2022-08-05T09:36:55.873Z,76.26
2022-08-05T09:39:45.840Z,75.99
2022-08-05T09:42:20.276Z,76.45
2022-08-05T09:44:56.379Z,74.58
2022-08-05T09:47:36.432Z,75.77
2022-08-05T09:50:18.193Z,75.82
2022-08-05T09:53:01.114Z,76.69
2022-08-05T09:55:58.453Z,75.31
2022-08-05T09:58:15.724Z,75.71
2022-08-05T10:01:01.588Z,75.82
2022-08-05T10:03:58.701Z,76.32
2022-08-05T10:06:28.081Z,76.45
2022-08-05T10:08:56.406Z,75.85
2022-08-05T10:11:24.073Z,77.37
2022-08-05T10:13:58.208Z,79.23
2022-08-05T10:16:33.899Z,78.56
2022-08-05T10:19:04.323Z,81.59
2022-08-05T10:21:40.165Z,83.29
2022-08-05T10:24:13.528Z,84.42
2022-08-05T10:26:49.136Z,84.73
2022-08-05T10:29:23.937Z,86.14
2022-08-05T10:32:53.047Z,88.02
2022-08-05T10:35:00.796Z,87.61
2022-08-05T10:37:40.461Z,87.94
2022-08-05T10:40:34.055Z,87.88
2022-08-05T10:43:43.437Z,89.08
2022-08-05T10:46:13.257Z,88.34
2022-08-05T10:48:57.450Z,88.57
2022-08-05T10:51:28.765Z,87.17
2022-08-05T10:54:00.924Z,87.54
2022-08-05T10:56:45.263Z,87.40
2022-08-05T11:00:02.938Z,86.99
2022-08-05T11:02:14.788Z,87.06
2022-08-05T11:05:04.016Z,86.39
2022-08-05T11:07:32.761Z,87.34
2022-08-05T11:10:29.216Z,87.09
2022-08-05T11:12:59.488Z,87.24
2022-08-05T11:15:43.962Z,88.30
2022-08-05T11:18:35.082Z,85.75
2022-08-05T11:21:11.851Z,84.82
2022-08-05T11:24:04.648Z,85.09
2022-08-05T11:26:38.264Z,85.14
2022-08-05T11:29:13.916Z,86.40
2022-08-05T11:31:57.500Z,86.13
2022-08-05T11:34:37.555Z,87.05
2022-08-05T11:37:06.075Z,86.87
2022-08-05T11:40:00.216Z,87.45
2022-08-05T11:42:31.657Z,87.04
2022-08-05T11:45:03.509Z,87.58
2022-08-05T11:47:49.690Z,87.18
2022-08-05T11:50:17.189Z,86.37
2022-08-05T11:52:46.067Z,88.12
2022-08-05T11:55:15.372Z,88.00
2022-08-05T11:58:08.205Z,89.12
2022-08-05T12:00:37.775Z,87.75
2022-08-05T12:03:28.818Z,88.15
2022-08-05T12:06:05.852Z,89.68
2022-08-05T12:08:33.624Z,87.30
2022-08-05T12:11:05.529Z,85.55
2022-08-05T12:13:48.628Z,85.46
2022-08-05T12:16:19.091Z,85.36
2022-08-05T12:18:52.803Z,85.56
2022-08-05T12:21:39.246Z,84.97
2022-08-05T12:24:11.661Z,84.91
2022-08-05T12:26:47.640Z,83.29
2022-08-05T12:29:22.971Z,81.50
2022-08-05T12:32:01.867Z,78.95
2022-08-05T12:34:31.889Z,78.85
2022-08-05T12:37:03.290Z,77.38
2022-08-05T12:39:34.488Z,76.24
2022-08-05T12:42:09.045Z,75.39
2022-08-05T12:44:35.849Z,73.30
2022-08-05T12:47:03.754Z,71.68
2022-08-05T12:50:04.339Z,71.30
2022-08-05T12:52:41.753Z,71.43
2022-08-05T12:55:22.314Z,72.26
2022-08-05T12:58:49.828Z,72.32
2022-08-05T13:02:02.843Z,72.57
2022-08-05T13:03:41.810Z,71.83
2022-08-05T13:06:16.031Z,72.85
2022-08-05T13:08:50.818Z,73.01
2022-08-05T13:12:01.696Z,72.10
2022-08-05T13:14:20.143Z,72.09
2022-08-05T13:16:54.266Z,72.55
2022-08-05T13:19:26.712Z,71.27
2022-08-05T13:22:01.271Z,71.62
2022-08-05T13:24:44.976Z,72.32
2022-08-05T13:27:39.081Z,72.38
2022-08-05T13:30:35.221Z,70.33
2022-08-05T13:33:00.948Z,69.06
2022-08-05T13:35:42.536Z,67.75
2022-08-05T13:38:28.657Z,67.24
2022-08-05T13:41:00.737Z,66.22
2022-08-05T13:43:45.266Z,65.98
2022-08-05T13:46:14.873Z,65.24
2022-08-05T13:48:57.717Z,64.55
2022-08-05T13:51:29.491Z,64.51
2022-08-05T13:54:03.249Z,65.25
2022-08-05T13:56:38.709Z,63.42
2022-08-05T13:59:19.764Z,63.57
2022-08-05T14:01:58.146Z,64.39
2022-08-05T14:04:54.264Z,65.91
2022-08-05T14:07:55.387Z,64.14
2022-08-05T14:10:18.735Z,64.84
2022-08-05T14:12:57.080Z,62.79
2022-08-05T14:16:07.546Z,63.37
2022-08-05T14:18:17.894Z,63.02
2022-08-05T14:20:48.921Z,63.48
2022-08-05T14:23:25.694Z,63.72
2022-08-05T14:25:58.398Z,64.10
2022-08-05T14:28:35.621Z,64.21
2022-08-05T14:31:02.794Z,65.69
2022-08-05T14:33:56.622Z,65.76
2022-08-05T14:36:21.252Z,64.94
2022-08-05T14:38:48.297Z,65.31
2022-08-05T14:41:14.993Z,64.98
2022-08-05T14:43:58.833Z,66.17
2022-08-05T14:46:36.276Z,65.21
2022-08-05T14:49:07.173Z,65.51
2022-08-05T14:51:42.893Z,66.88
2022-08-05T14:54:29.913Z,65.80
2022-08-05T14:57:01.028Z,66.21
2022-08-05T14:59:35.730Z,65.73
2022-08-05T15:02:15.668Z,65.26
2022-08-05T15:04:43.242Z,64.58
2022-08-05T15:07:09.885Z,65.30
2022-08-05T15:09:52.316Z,64.19
2022-08-05T15:12:23.121Z,63.47
2022-08-05T15:14:57.399Z,62.84
2022-08-05T15:17:46.685Z,62.02
2022-08-05T15:20:18.473Z,60.12
2022-08-05T15:22:54.129Z,58.88
2022-08-05T15:25:23.469Z,59.03
2022-08-05T15:28:08.049Z,58.92
2022-08-05T15:30:40.001Z,57.76
2022-08-05T15:33:06.609Z,56.59
2022-08-05T15:35:36.018Z,58.07
2022-08-05T15:38:33.087Z,57.64
2022-08-05T15:41:04.359Z,57.76
2022-08-05T15:43:45.397Z,59.46
2022-08-05T15:46:13.309Z,60.26
2022-08-05T15:48:40.788Z,60.71
2022-08-05T15:52:04.287Z,62.01
2022-08-05T15:54:14.951Z,62.45
2022-08-05T15:56:41.777Z,62.60
2022-08-05T15:59:08.251Z,62.88
2022-08-05T16:01:39.839Z,62.84
2022-08-05T16:04:08.660Z,63.39
2022-08-05T16:06:37.120Z,63.02
2022-08-05T16:09:04.140Z,63.09
2022-08-05T16:11:42.482Z,63.03
2022-08-05T16:14:10.436Z,63.30
2022-08-05T16:16:43.976Z,63.23
2022-08-05T16:19:25.606Z,62.52
2022-08-05T16:22:02.720Z,62.34
2022-08-05T16:24:40.172Z,61.76
2022-08-05T16:27:09.023Z,61.16
2022-08-05T16:29:38.585Z,60.48
2022-08-05T16:32:06.453Z,60.67
2022-08-05T16:34:36.088Z,60.12
2022-08-05T16:37:03.466Z,59.22
2022-08-05T16:40:04.982Z,57.54
2022-08-05T16:42:34.924Z,52.64
2022-08-05T16:46:02.993Z,46.96
2022-08-05T16:47:55.583Z,44.44
2022-08-05T16:50:26.494Z,44.79
2022-08-05T16:52:52.913Z,43.48
2022-08-05T16:55:23.205Z,43.84
2022-08-05T16:58:00.476Z,43.87
2022-08-05T17:00:34.512Z,44.39
2022-08-05T17:03:15.204Z,44.42
2022-08-05T17:05:50.266Z,43.72
2022-08-05T17:08:36.473Z,44.84
2022-08-05T17:11:16.542Z,44.35
2022-08-05T17:13:44.477Z,44.40
2022-08-05T17:16:32.811Z,44.57
2022-08-05T17:18:58.623Z,43.57
2022-08-05T17:21:36.243Z,44.69
2022-08-05T17:24:19.736Z,45.02
2022-08-05T17:26:58.297Z,45.40
2022-08-05T17:29:33.236Z,44.56
2022-08-05T17:32:00.900Z,44.18
2022-08-05T17:34:30.017Z,45.47
2022-08-05T17:36:59.985Z,45.30
2022-08-05T17:39:34.423Z,44.79
2022-08-05T17:42:18.520Z,44.54
2022-08-05T17:44:50.297Z,44.82
2022-08-05T17:47:22.971Z,44.95
2022-08-05T17:49:59.501Z,44.86
2022-08-05T17:52:30.980Z,44.69
2022-08-05T17:54:58.172Z,44.88
2022-08-05T17:57:25.764Z,44.66
2022-08-05T18:00:03.587Z,44.46
2022-08-05T18:02:35.222Z,44.66
2022-08-05T18:05:03.473Z,44.29
2022-08-05T18:07:41.435Z,45.74
2022-08-05T18:10:11.295Z,45.59
2022-08-05T18:12:39.096Z,44.46
2022-08-05T18:15:06.284Z,44.70
2022-08-05T18:18:00.240Z,45.29
2022-08-05T18:20:29.415Z,45.72
2022-08-05T18:23:00.554Z,46.07
2022-08-05T18:25:38.915Z,46.14
2022-08-05T18:28:06.665Z,46.46
2022-08-05T18:30:34.492Z,46.22
2022-08-05T18:33:01.859Z,47.17
2022-08-05T18:35:59.615Z,48.25
2022-08-05T18:38:19.444Z,47.42
2022-08-05T18:41:55.342Z,48.47
2022-08-05T18:43:43.205Z,47.67
2022-08-05T18:46:19.559Z,47.29
2022-08-05T18:48:51.919Z,47.29
2022-08-05T18:52:04.745Z,45.94
2022-08-05T18:54:26.052Z,46.60
2022-08-05T18:56:54.596Z,46.44
2022-08-05T18:59:43.995Z,47.09
2022-08-05T19:02:11.330Z,46.76
2022-08-05T19:05:02.167Z,47.70
2022-08-05T19:07:45.231Z,47.84
2022-08-05T19:10:12.286Z,48.19
2022-08-05T19:12:38.775Z,48.88
2022-08-05T19:15:05.801Z,48.80
2022-08-05T19:17:59.015Z,49.90
2022-08-05T19:20:34.804Z,49.95
2022-08-05T19:23:02.648Z,50.17
2022-08-05T19:25:39.235Z,50.07
2022-08-05T19:28:10.314Z,50.48
2022-08-05T19:30:36.809Z,51.04
2022-08-05T19:33:05.194Z,52.15
2022-08-05T19:35:56.516Z,52.17
2022-08-05T19:38:26.415Z,52.39
2022-08-05T19:40:53.450Z,53.24
2022-08-05T19:44:04.826Z,53.41
2022-08-05T19:46:06.320Z,54.08
2022-08-05T19:48:43.516Z,54.50
2022-08-05T19:52:05.040Z,54.45
2022-08-05T19:54:21.658Z,54.96
2022-08-05T19:56:54.143Z,54.74
2022-08-05T19:59:51.649Z,55.64
2022-08-05T20:02:07.669Z,55.95
2022-08-05T20:04:34.187Z,55.68
2022-08-05T20:07:01.016Z,55.96
2022-08-05T20:09:28.590Z,55.87
2022-08-05T20:12:15.094Z,56.27
2022-08-05T20:14:41.830Z,56.45
2022-08-05T20:17:09.895Z,57.02
2022-08-05T20:19:41.336Z,57.89
2022-08-05T20:22:09.664Z,58.26
2022-08-05T20:24:36.215Z,59.10
2022-08-05T20:27:04.457Z,59.00
2022-08-05T20:29:38.196Z,59.02
2022-08-05T20:32:06.502Z,59.92
2022-08-05T20:34:32.987Z,59.83
2022-08-05T20:37:01.171Z,60.12
2022-08-05T20:39:35.422Z,60.60
2022-08-05T20:42:02.402Z,60.41
2022-08-05T20:44:29.922Z,60.39
2022-08-05T20:46:59.796Z,60.47
2022-08-05T20:49:26.940Z,60.28
2022-08-05T20:51:55.049Z,59.78
2022-08-05T20:54:24.703Z,59.47
2022-08-05T20:56:52.353Z,59.37
2022-08-05T20:59:26.503Z,59.25
2022-08-05T21:01:57.243Z,59.20
2022-08-05T21:04:26.918Z,58.36
2022-08-05T21:06:54.939Z,58.19
2022-08-05T21:09:22.665Z,58.41
2022-08-05T21:12:07.293Z,58.42
2022-08-05T21:14:36.333Z,58.28
2022-08-05T21:17:05.458Z,57.95
2022-08-05T21:19:46.669Z,58.17
2022-08-05T21:22:14.317Z,58.18
2022-08-05T21:24:40.888Z,57.79
2022-08-05T21:27:09.104Z,58.08
2022-08-05T21:29:40.767Z,58.26
2022-08-05T21:32:07.531Z,58.43
2022-08-05T21:34:35.404Z,58.49
2022-08-05T21:37:02.570Z,58.57
2022-08-05T21:39:29.714Z,59.01
2022-08-05T21:42:01.284Z,59.52
2022-08-05T21:44:32.326Z,59.65
2022-08-05T21:46:59.625Z,60.45
2022-08-05T21:49:56.623Z,60.50
2022-08-05T21:52:23.054Z,60.34
2022-08-05T21:55:06.788Z,60.42
2022-08-05T21:57:34.281Z,60.71
2022-08-05T22:00:06.159Z,60.78
2022-08-05T22:02:42.868Z,60.82
2022-08-05T22:05:15.298Z,61.53
2022-08-05T22:07:59.133Z,61.84
2022-08-05T22:10:29.220Z,62.10
2022-08-05T22:12:59.077Z,62.22
2022-08-05T22:16:01.563Z,62.58
2022-08-05T22:18:24.856Z,62.11
2022-08-05T22:20:52.553Z,62.47
2022-08-05T22:24:02.336Z,62.80
2022-08-05T22:26:43.004Z,62.72
2022-08-05T22:29:17.425Z,63.02
2022-08-05T22:31:45.312Z,62.88
2022-08-05T22:34:12.842Z,63.73
2022-08-05T22:36:46.965Z,63.50
2022-08-05T22:39:19.715Z,63.89
2022-08-05T22:42:10.151Z,63.85
2022-08-05T22:44:34.721Z,64.33
2022-08-05T22:47:01.264Z,64.08
2022-08-05T22:50:17.855Z,65.06
2022-08-05T22:52:30.612Z,65.06
2022-08-05T22:55:01.198Z,65.84
2022-08-05T22:57:33.961Z,66.09
2022-08-05T23:00:03.690Z,66.67
2022-08-05T23:02:30.430Z,67.10
2022-08-05T23:05:01.946Z,66.95
2022-08-05T23:07:32.430Z,67.25
2022-08-05T23:10:10.404Z,67.52
2022-08-05T23:12:36.848Z,68.30
2022-08-05T23:15:08.991Z,68.11
2022-08-05T23:17:59.665Z,68.05
2022-08-05T23:20:24.399Z,68.81
2022-08-05T23:22:55.934Z,68.59
2022-08-05T23:25:50.922Z,68.44
2022-08-05T23:28:22.879Z,68.95
2022-08-05T23:30:53.195Z,69.17
2022-08-05T23:33:26.594Z,68.78
2022-08-05T23:36:10.456Z,69.25
2022-08-05T23:38:37.272Z,68.92
2022-08-05T23:41:03.758Z,69.35
2022-08-05T23:43:49.696Z,69.41
2022-08-05T23:46:21.292Z,69.31
2022-08-05T23:49:00.720Z,69.24
2022-08-05T23:51:53.663Z,69.40
2022-08-05T23:54:38.160Z,69.51
2022-08-05T23:57:06.570Z,69.46
